sensor_id;sensor_type;location;lat;lon;timestamp;pressure;altitude;pressure_sealevel;temperature;humidity
46690;BME280;32423;45.398;10.874;2023-01-30T00:00:56;101457.66;;;5.56;53.42
46690;BME280;32423;45.398;10.874;2023-01-30T00:03:48;101456.44;;;5.27;53.69
46690;BME280;32423;45.398;10.874;2023-01-30T00:06:40;101453.00;;;4.25;57.07
46690;BME280;32423;45.398;10.874;2023-01-30T00:09:30;101449.09;;;4.11;58.75
46690;BME280;32423;45.398;10.874;2023-01-30T00:12:22;101453.22;;;4.88;56.13
46690;BME280;32423;45.398;10.874;2023-01-30T00:15:14;101453.13;;;5.14;55.24
46690;BME280;32423;45.398;10.874;2023-01-30T00:18:06;101444.66;;;5.38;54.18
46690;BME280;32423;45.398;10.874;2023-01-30T00:20:58;101436.13;;;5.71;53.48
46690;BME280;32423;45.398;10.874;2023-01-30T00:23:50;101438.03;;;5.71;54.02
46690;BME280;32423;45.398;10.874;2023-01-30T00:26:42;101435.72;;;5.32;53.08
46690;BME280;32423;45.398;10.874;2023-01-30T00:29:32;101429.44;;;5.16;53.86
46690;BME280;32423;45.398;10.874;2023-01-30T00:32:24;101435.31;;;5.08;54.22
46690;BME280;32423;45.398;10.874;2023-01-30T00:35:17;101425.03;;;5.52;53.64
46690;BME280;32423;45.398;10.874;2023-01-30T00:38:07;101422.25;;;5.37;54.08
46690;BME280;32423;45.398;10.874;2023-01-30T00:40:59;101418.88;;;5.67;52.94
46690;BME280;32423;45.398;10.874;2023-01-30T00:43:51;101421.03;;;5.70;52.26
46690;BME280;32423;45.398;10.874;2023-01-30T00:46:59;101417.84;;;5.83;52.70
46690;BME280;32423;45.398;10.874;2023-01-30T00:49:55;101417.59;;;5.95;52.31
46690;BME280;32423;45.398;10.874;2023-01-30T00:52:47;101414.09;;;5.99;51.29
46690;BME280;32423;45.398;10.874;2023-01-30T00:55:39;101409.31;;;5.44;51.78
46690;BME280;32423;45.398;10.874;2023-01-30T00:58:29;101400.47;;;5.54;52.24
46690;BME280;32423;45.398;10.874;2023-01-30T01:01:23;101409.16;;;5.66;51.90
46690;BME280;32423;45.398;10.874;2023-01-30T01:04:14;101406.63;;;5.39;52.63
46690;BME280;32423;45.398;10.874;2023-01-30T01:07:04;101406.97;;;5.58;53.11
46690;BME280;32423;45.398;10.874;2023-01-30T01:09:56;101402.97;;;5.08;53.22
46690;BME280;32423;45.398;10.874;2023-01-30T01:12:48;101403.31;;;5.22;53.99
46690;BME280;32423;45.398;10.874;2023-01-30T01:15:41;101400.91;;;5.26;53.61
46690;BME280;32423;45.398;10.874;2023-01-30T01:18:33;101394.31;;;5.01;53.06
46690;BME280;32423;45.398;10.874;2023-01-30T01:21:26;101399.41;;;5.03;53.85
46690;BME280;32423;45.398;10.874;2023-01-30T01:24:16;101402.13;;;5.03;53.75
46690;BME280;32423;45.398;10.874;2023-01-30T01:27:05;101394.28;;;4.96;53.86
46690;BME280;32423;45.398;10.874;2023-01-30T01:29:59;101395.53;;;5.31;53.43
46690;BME280;32423;45.398;10.874;2023-01-30T01:32:51;101391.50;;;5.28;53.11
46690;BME280;32423;45.398;10.874;2023-01-30T01:35:43;101388.41;;;5.09;53.26
46690;BME280;32423;45.398;10.874;2023-01-30T01:38:36;101378.78;;;5.29;52.92
46690;BME280;32423;45.398;10.874;2023-01-30T01:41:29;101378.81;;;3.81;55.59
46690;BME280;32423;45.398;10.874;2023-01-30T01:44:22;101372.63;;;4.39;54.63
46690;BME280;32423;45.398;10.874;2023-01-30T01:47:17;101370.34;;;4.63;53.80
46690;BME280;32423;45.398;10.874;2023-01-30T01:50:14;101358.78;;;5.14;52.92
46690;BME280;32423;45.398;10.874;2023-01-30T01:53:06;101360.66;;;5.09;53.37
46690;BME280;32423;45.398;10.874;2023-01-30T01:55:56;101365.81;;;5.15;53.81
46690;BME280;32423;45.398;10.874;2023-01-30T01:58:51;101352.63;;;5.24;52.76
46690;BME280;32423;45.398;10.874;2023-01-30T02:01:45;101352.09;;;5.22;52.80
46690;BME280;32423;45.398;10.874;2023-01-30T02:04:40;101350.03;;;5.59;53.46
46690;BME280;32423;45.398;10.874;2023-01-30T02:07:58;101342.22;;;5.58;51.89
46690;BME280;32423;45.398;10.874;2023-01-30T02:13:46;101339.94;;;5.20;51.20
46690;BME280;32423;45.398;10.874;2023-01-30T02:16:41;101335.16;;;5.42;52.33
46690;BME280;32423;45.398;10.874;2023-01-30T02:29:08;101323.00;;;3.93;54.11
46690;BME280;32423;45.398;10.874;2023-01-30T02:32:06;101322.78;;;4.32;53.96
46690;BME280;32423;45.398;10.874;2023-01-30T02:35:02;101321.56;;;4.54;54.47
46690;BME280;32423;45.398;10.874;2023-01-30T02:38:00;101318.06;;;4.54;53.35
46690;BME280;32423;45.398;10.874;2023-01-30T02:49:58;101317.63;;;4.72;53.50
46690;BME280;32423;45.398;10.874;2023-01-30T02:52:53;101320.13;;;4.37;54.25
46690;BME280;32423;45.398;10.874;2023-01-30T02:55:45;101316.47;;;4.58;53.48
46690;BME280;32423;45.398;10.874;2023-01-30T02:58:37;101309.47;;;4.57;53.03
46690;BME280;32423;45.398;10.874;2023-01-30T03:10:42;101288.31;;;4.81;53.52
46690;BME280;32423;45.398;10.874;2023-01-30T03:13:51;101276.81;;;5.00;53.11
46690;BME280;32423;45.398;10.874;2023-01-30T03:16:45;101280.81;;;4.41;53.71
46690;BME280;32423;45.398;10.874;2023-01-30T03:19:37;101275.28;;;4.15;54.40
46690;BME280;32423;45.398;10.874;2023-01-30T03:22:26;101275.53;;;4.56;54.76
46690;BME280;32423;45.398;10.874;2023-01-30T03:25:18;101267.44;;;4.51;53.45
46690;BME280;32423;45.398;10.874;2023-01-30T03:28:11;101256.06;;;4.44;53.38
46690;BME280;32423;45.398;10.874;2023-01-30T03:31:05;101266.06;;;4.53;53.92
46690;BME280;32423;45.398;10.874;2023-01-30T03:33:58;101254.00;;;4.56;53.70
46690;BME280;32423;45.398;10.874;2023-01-30T03:36:48;101255.03;;;4.50;52.64
46690;BME280;32423;45.398;10.874;2023-01-30T03:39:40;101253.94;;;4.04;52.60
46690;BME280;32423;45.398;10.874;2023-01-30T03:42:35;101257.97;;;4.01;54.08
46690;BME280;32423;45.398;10.874;2023-01-30T03:45:29;101257.44;;;4.46;52.87
46690;BME280;32423;45.398;10.874;2023-01-30T03:48:18;101248.03;;;4.54;53.00
46690;BME280;32423;45.398;10.874;2023-01-30T03:51:14;101256.59;;;4.41;52.86
46690;BME280;32423;45.398;10.874;2023-01-30T03:54:01;101246.34;;;4.43;53.54
46690;BME280;32423;45.398;10.874;2023-01-30T03:56:53;101238.00;;;4.39;52.31
46690;BME280;32423;45.398;10.874;2023-01-30T03:59:45;101234.28;;;4.45;52.76
46690;BME280;32423;45.398;10.874;2023-01-30T04:02:38;101233.81;;;4.63;51.24
46690;BME280;32423;45.398;10.874;2023-01-30T04:05:27;101235.13;;;4.51;52.45
46690;BME280;32423;45.398;10.874;2023-01-30T04:08:23;101235.47;;;4.74;51.65
46690;BME280;32423;45.398;10.874;2023-01-30T04:11:12;101228.41;;;4.63;51.93
46690;BME280;32423;45.398;10.874;2023-01-30T04:14:05;101225.97;;;4.52;52.29
46690;BME280;32423;45.398;10.874;2023-01-30T04:17:03;101220.03;;;4.55;52.19
46690;BME280;32423;45.398;10.874;2023-01-30T04:20:15;101222.56;;;4.19;53.14
46690;BME280;32423;45.398;10.874;2023-01-30T04:23:09;101213.88;;;4.12;52.65
46690;BME280;32423;45.398;10.874;2023-01-30T04:26:01;101209.28;;;4.08;54.83
46690;BME280;32423;45.398;10.874;2023-01-30T04:28:54;101205.75;;;4.02;54.55
46690;BME280;32423;45.398;10.874;2023-01-30T04:31:47;101209.00;;;4.04;54.42
46690;BME280;32423;45.398;10.874;2023-01-30T04:34:41;101204.22;;;4.11;54.10
46690;BME280;32423;45.398;10.874;2023-01-30T04:37:33;101206.16;;;4.21;54.22
46690;BME280;32423;45.398;10.874;2023-01-30T04:40:26;101195.63;;;4.19;53.59
46690;BME280;32423;45.398;10.874;2023-01-30T04:43:18;101192.25;;;3.55;54.64
46690;BME280;32423;45.398;10.874;2023-01-30T04:46:27;101187.25;;;3.69;55.16
46690;BME280;32423;45.398;10.874;2023-01-30T04:49:14;101178.41;;;3.41;55.69
46690;BME280;32423;45.398;10.874;2023-01-30T04:52:07;101176.66;;;3.57;55.77
46690;BME280;32423;45.398;10.874;2023-01-30T04:54:59;101176.03;;;3.82;56.35
46690;BME280;32423;45.398;10.874;2023-01-30T04:57:52;101172.06;;;3.90;55.58
46690;BME280;32423;45.398;10.874;2023-01-30T05:00:45;101173.88;;;3.79;56.24
46690;BME280;32423;45.398;10.874;2023-01-30T05:03:38;101173.69;;;3.54;56.25
46690;BME280;32423;45.398;10.874;2023-01-30T05:06:27;101168.56;;;3.52;56.74
46690;BME280;32423;45.398;10.874;2023-01-30T05:09:17;101172.19;;;3.36;57.78
46690;BME280;32423;45.398;10.874;2023-01-30T05:12:09;101175.09;;;3.29;56.84
46690;BME280;32423;45.398;10.874;2023-01-30T05:15:01;101163.91;;;3.42;56.81
46690;BME280;32423;45.398;10.874;2023-01-30T05:17:53;101163.47;;;3.56;56.89
46690;BME280;32423;45.398;10.874;2023-01-30T05:20:45;101165.66;;;3.59;56.86
46690;BME280;32423;45.398;10.874;2023-01-30T05:23:37;101184.63;;;3.79;56.21
46690;BME280;32423;45.398;10.874;2023-01-30T05:26:29;101186.69;;;3.67;55.65
46690;BME280;32423;45.398;10.874;2023-01-30T05:29:21;101196.94;;;3.38;55.34
46690;BME280;32423;45.398;10.874;2023-01-30T05:32:13;101188.53;;;3.03;55.94
46690;BME280;32423;45.398;10.874;2023-01-30T05:35:06;101163.38;;;3.45;56.49
46690;BME280;32423;45.398;10.874;2023-01-30T05:37:58;101186.22;;;3.75;55.85
46690;BME280;32423;45.398;10.874;2023-01-30T05:40:56;101188.97;;;3.48;55.89
46690;BME280;32423;45.398;10.874;2023-01-30T05:43:51;101191.06;;;3.46;56.86
46690;BME280;32423;45.398;10.874;2023-01-30T05:46:43;101184.94;;;3.19;55.76
46690;BME280;32423;45.398;10.874;2023-01-30T05:49:35;101197.59;;;3.50;55.71
46690;BME280;32423;45.398;10.874;2023-01-30T05:52:31;101201.50;;;3.37;56.62
46690;BME280;32423;45.398;10.874;2023-01-30T05:55:20;101212.00;;;3.12;56.31
46690;BME280;32423;45.398;10.874;2023-01-30T05:58:12;101206.44;;;2.92;56.39
46690;BME280;32423;45.398;10.874;2023-01-30T06:01:05;101211.59;;;2.98;56.96
46690;BME280;32423;45.398;10.874;2023-01-30T06:03:57;101207.25;;;2.92;57.34
46690;BME280;32423;45.398;10.874;2023-01-30T06:06:50;101196.16;;;2.84;58.11
46690;BME280;32423;45.398;10.874;2023-01-30T06:09:42;101198.88;;;2.89;57.02
46690;BME280;32423;45.398;10.874;2023-01-30T06:12:31;101198.53;;;3.07;57.47
46690;BME280;32423;45.398;10.874;2023-01-30T06:15:23;101195.16;;;3.49;57.44
46690;BME280;32423;45.398;10.874;2023-01-30T06:18:15;101200.50;;;3.17;56.51
46690;BME280;32423;45.398;10.874;2023-01-30T06:21:07;101197.78;;;2.90;57.81
46690;BME280;32423;45.398;10.874;2023-01-30T06:23:59;101199.47;;;2.96;56.69
46690;BME280;32423;45.398;10.874;2023-01-30T06:26:51;101197.94;;;3.05;57.04
46690;BME280;32423;45.398;10.874;2023-01-30T06:29:41;101196.94;;;3.11;56.25
46690;BME280;32423;45.398;10.874;2023-01-30T06:32:33;101196.59;;;3.29;56.06
46690;BME280;32423;45.398;10.874;2023-01-30T06:35:25;101205.19;;;2.99;56.26
46690;BME280;32423;45.398;10.874;2023-01-30T06:38:17;101210.81;;;2.54;58.17
46690;BME280;32423;45.398;10.874;2023-01-30T06:41:09;101213.22;;;2.99;56.87
46690;BME280;32423;45.398;10.874;2023-01-30T06:44:01;101216.28;;;3.08;56.22
46690;BME280;32423;45.398;10.874;2023-01-30T06:46:53;101210.00;;;3.24;55.46
46690;BME280;32423;45.398;10.874;2023-01-30T06:49:45;101208.56;;;3.17;56.39
46690;BME280;32423;45.398;10.874;2023-01-30T06:52:37;101211.09;;;3.01;56.30
46690;BME280;32423;45.398;10.874;2023-01-30T06:55:31;101212.41;;;3.26;56.17
46690;BME280;32423;45.398;10.874;2023-01-30T06:58:23;101217.44;;;3.44;55.80
46690;BME280;32423;45.398;10.874;2023-01-30T07:01:15;101212.09;;;3.49;55.91
46690;BME280;32423;45.398;10.874;2023-01-30T07:04:07;101220.16;;;3.22;56.98
46690;BME280;32423;45.398;10.874;2023-01-30T07:06:59;101229.88;;;3.01;57.10
46690;BME280;32423;45.398;10.874;2023-01-30T07:09:51;101209.34;;;2.64;58.56
46690;BME280;32423;45.398;10.874;2023-01-30T07:12:44;101187.09;;;2.95;58.15
46690;BME280;32423;45.398;10.874;2023-01-30T07:15:36;101184.19;;;2.75;59.21
46690;BME280;32423;45.398;10.874;2023-01-30T07:18:25;101176.31;;;2.90;58.54
46690;BME280;32423;45.398;10.874;2023-01-30T07:21:17;101181.03;;;2.78;58.93
46690;BME280;32423;45.398;10.874;2023-01-30T07:24:09;101188.38;;;2.87;58.56
46690;BME280;32423;45.398;10.874;2023-01-30T07:27:01;101204.03;;;3.22;57.14
46690;BME280;32423;45.398;10.874;2023-01-30T07:29:53;101195.59;;;3.40;56.55
46690;BME280;32423;45.398;10.874;2023-01-30T07:32:45;101193.34;;;3.59;56.17
46690;BME280;32423;45.398;10.874;2023-01-30T07:35:39;101193.13;;;3.66;56.53
46690;BME280;32423;45.398;10.874;2023-01-30T07:38:31;101191.22;;;3.29;58.00
46690;BME280;32423;45.398;10.874;2023-01-30T07:41:23;101185.84;;;2.76;60.49
46690;BME280;32423;45.398;10.874;2023-01-30T07:44:16;101182.59;;;2.74;61.16
46690;BME280;32423;45.398;10.874;2023-01-30T07:47:07;101179.00;;;2.63;62.14
46690;BME280;32423;45.398;10.874;2023-01-30T07:49:59;101183.47;;;2.57;63.26
46690;BME280;32423;45.398;10.874;2023-01-30T07:52:51;101201.00;;;2.87;62.06
46690;BME280;32423;45.398;10.874;2023-01-30T07:55:38;101199.22;;;2.97;62.35
46690;BME280;32423;45.398;10.874;2023-01-30T07:58:30;101196.69;;;3.13;61.40
46690;BME280;32423;45.398;10.874;2023-01-30T08:01:22;101203.28;;;3.27;61.08
46690;BME280;32423;45.398;10.874;2023-01-30T08:04:15;101188.88;;;3.38;60.62
46690;BME280;32423;45.398;10.874;2023-01-30T08:07:07;101188.63;;;3.13;61.37
46690;BME280;32423;45.398;10.874;2023-01-30T08:09:56;101168.59;;;3.57;60.48
46690;BME280;32423;45.398;10.874;2023-01-30T08:12:48;101171.00;;;3.91;59.32
46690;BME280;32423;45.398;10.874;2023-01-30T08:15:40;101163.38;;;3.82;59.36
46690;BME280;32423;45.398;10.874;2023-01-30T08:18:32;101160.56;;;2.72;64.57
46690;BME280;32423;45.398;10.874;2023-01-30T08:21:24;101144.16;;;2.25;64.99
46690;BME280;32423;45.398;10.874;2023-01-30T08:24:16;101152.66;;;2.17;69.51
46690;BME280;32423;45.398;10.874;2023-01-30T08:27:08;101154.25;;;2.61;66.14
46690;BME280;32423;45.398;10.874;2023-01-30T08:30:00;101148.28;;;2.10;67.24
46690;BME280;32423;45.398;10.874;2023-01-30T08:32:50;101146.53;;;2.43;66.44
46690;BME280;32423;45.398;10.874;2023-01-30T08:35:39;101136.38;;;2.23;66.93
46690;BME280;32423;45.398;10.874;2023-01-30T08:38:31;101142.47;;;1.97;68.41
46690;BME280;32423;45.398;10.874;2023-01-30T08:41:23;101129.75;;;1.87;69.52
46690;BME280;32423;45.398;10.874;2023-01-30T08:44:15;101142.53;;;2.02;68.43
46690;BME280;32423;45.398;10.874;2023-01-30T08:47:07;101159.50;;;2.51;66.51
46690;BME280;32423;45.398;10.874;2023-01-30T08:49:56;101157.31;;;1.49;69.54
46690;BME280;32423;45.398;10.874;2023-01-30T08:52:50;101136.91;;;1.65;70.16
46690;BME280;32423;45.398;10.874;2023-01-30T08:55:45;101152.47;;;2.23;68.58
46690;BME280;32423;45.398;10.874;2023-01-30T08:58:39;101155.66;;;2.64;66.64
46690;BME280;32423;45.398;10.874;2023-01-30T09:01:34;101153.56;;;2.71;66.12
46690;BME280;32423;45.398;10.874;2023-01-30T09:04:30;101143.34;;;2.68;66.14
46690;BME280;32423;45.398;10.874;2023-01-30T09:07:24;101147.97;;;2.50;66.32
46690;BME280;32423;45.398;10.874;2023-01-30T09:10:19;101137.31;;;3.09;65.44
46690;BME280;32423;45.398;10.874;2023-01-30T09:13:13;101132.22;;;3.86;63.37
46690;BME280;32423;45.398;10.874;2023-01-30T09:16:08;101134.03;;;4.28;61.83
46690;BME280;32423;45.398;10.874;2023-01-30T09:19:02;101139.88;;;4.82;60.32
46690;BME280;32423;45.398;10.874;2023-01-30T09:21:57;101137.50;;;3.34;64.26
46690;BME280;32423;45.398;10.874;2023-01-30T09:24:51;101140.50;;;3.75;64.34
46690;BME280;32423;45.398;10.874;2023-01-30T09:27:43;101139.75;;;2.84;67.07
46690;BME280;32423;45.398;10.874;2023-01-30T09:30:40;101132.72;;;3.41;66.89
46690;BME280;32423;45.398;10.874;2023-01-30T09:33:35;101131.34;;;3.76;65.73
46690;BME280;32423;45.398;10.874;2023-01-30T09:36:29;101124.38;;;3.80;65.39
46690;BME280;32423;45.398;10.874;2023-01-30T09:39:21;101114.75;;;3.15;67.64
46690;BME280;32423;45.398;10.874;2023-01-30T09:42:27;101111.31;;;3.57;67.67
46690;BME280;32423;45.398;10.874;2023-01-30T09:45:40;101117.19;;;3.91;66.51
46690;BME280;32423;45.398;10.874;2023-01-30T09:51:43;101108.34;;;3.95;65.58
46690;BME280;32423;45.398;10.874;2023-01-30T09:54:41;101100.91;;;4.27;66.16
46690;BME280;32423;45.398;10.874;2023-01-30T09:57:37;101099.34;;;4.32;66.17
46690;BME280;32423;45.398;10.874;2023-01-30T10:00:40;101101.47;;;4.24;65.19
46690;BME280;32423;45.398;10.874;2023-01-30T10:03:47;101108.53;;;4.41;65.91
46690;BME280;32423;45.398;10.874;2023-01-30T10:06:58;101099.41;;;4.52;65.99
46690;BME280;32423;45.398;10.874;2023-01-30T10:10:20;101096.44;;;4.63;65.77
46690;BME280;32423;45.398;10.874;2023-01-30T10:13:32;101091.88;;;4.69;64.81
46690;BME280;32423;45.398;10.874;2023-01-30T10:25:52;101052.84;;;4.82;66.26
46690;BME280;32423;45.398;10.874;2023-01-30T10:31:48;101051.22;;;4.60;67.86
46690;BME280;32423;45.398;10.874;2023-01-30T10:35:13;101046.34;;;4.57;68.38
46690;BME280;32423;45.398;10.874;2023-01-30T10:38:22;101045.03;;;4.80;67.99
46690;BME280;32423;45.398;10.874;2023-01-30T10:44:20;101005.41;;;5.06;67.65
46690;BME280;32423;45.398;10.874;2023-01-30T10:50:20;100990.47;;;5.54;66.85
46690;BME280;32423;45.398;10.874;2023-01-30T10:53:14;100982.94;;;5.56;65.68
46690;BME280;32423;45.398;10.874;2023-01-30T10:56:37;100976.28;;;6.03;62.71
46690;BME280;32423;45.398;10.874;2023-01-30T11:06:16;100968.44;;;6.79;56.71
46690;BME280;32423;45.398;10.874;2023-01-30T11:09:07;100952.56;;;6.72;54.89
46690;BME280;32423;45.398;10.874;2023-01-30T11:11:59;100948.91;;;6.87;54.62
46690;BME280;32423;45.398;10.874;2023-01-30T11:15:02;100943.41;;;6.97;55.02
46690;BME280;32423;45.398;10.874;2023-01-30T11:18:05;100924.69;;;7.06;53.83
46690;BME280;32423;45.398;10.874;2023-01-30T11:21:11;100920.75;;;7.17;53.76
46690;BME280;32423;45.398;10.874;2023-01-30T11:24:12;100925.00;;;7.23;53.03
46690;BME280;32423;45.398;10.874;2023-01-30T11:27:18;100924.03;;;7.61;52.70
46690;BME280;32423;45.398;10.874;2023-01-30T11:30:22;100913.88;;;7.91;51.64
46690;BME280;32423;45.398;10.874;2023-01-30T11:33:17;100904.06;;;8.13;50.95
46690;BME280;32423;45.398;10.874;2023-01-30T11:36:29;100884.53;;;8.16;49.84
46690;BME280;32423;45.398;10.874;2023-01-30T11:39:22;100880.56;;;8.28;48.88
46690;BME280;32423;45.398;10.874;2023-01-30T11:42:24;100895.47;;;8.44;48.99
46690;BME280;32423;45.398;10.874;2023-01-30T11:45:21;100870.63;;;8.55;48.19
46690;BME280;32423;45.398;10.874;2023-01-30T11:48:25;100880.28;;;8.62;48.26
46690;BME280;32423;45.398;10.874;2023-01-30T11:51:15;100901.78;;;8.72;48.55
46690;BME280;32423;45.398;10.874;2023-01-30T11:54:21;100879.91;;;8.68;47.19
46690;BME280;32423;45.398;10.874;2023-01-30T11:57:21;100864.66;;;8.86;47.74
46690;BME280;32423;45.398;10.874;2023-01-30T12:00:20;100848.38;;;8.99;47.29
46690;BME280;32423;45.398;10.874;2023-01-30T12:03:18;100846.78;;;8.98;46.68
46690;BME280;32423;45.398;10.874;2023-01-30T12:06:22;100831.72;;;9.06;46.84
46690;BME280;32423;45.398;10.874;2023-01-30T12:09:37;100814.63;;;9.19;45.95
46690;BME280;32423;45.398;10.874;2023-01-30T12:13:02;100816.84;;;8.90;46.87
46690;BME280;32423;45.398;10.874;2023-01-30T12:16:00;100794.25;;;9.08;46.37
46690;BME280;32423;45.398;10.874;2023-01-30T12:19:06;100820.06;;;9.19;49.79
46690;BME280;32423;45.398;10.874;2023-01-30T12:22:34;100818.63;;;9.22;46.84
46690;BME280;32423;45.398;10.874;2023-01-30T12:25:28;100798.50;;;9.36;45.33
46690;BME280;32423;45.398;10.874;2023-01-30T12:31:47;100774.44;;;9.57;44.89
46690;BME280;32423;45.398;10.874;2023-01-30T12:34:40;100766.00;;;9.59;49.43
46690;BME280;32423;45.398;10.874;2023-01-30T12:37:43;100776.97;;;9.54;48.12
46690;BME280;32423;45.398;10.874;2023-01-30T12:40:42;100773.91;;;9.69;48.93
46690;BME280;32423;45.398;10.874;2023-01-30T12:43:36;100768.59;;;9.64;45.45
46690;BME280;32423;45.398;10.874;2023-01-30T12:46:30;100764.47;;;9.88;45.48
46690;BME280;32423;45.398;10.874;2023-01-30T12:52:21;100762.66;;;9.84;46.93
46690;BME280;32423;45.398;10.874;2023-01-30T12:58:14;100756.72;;;10.04;47.83
46690;BME280;32423;45.398;10.874;2023-01-30T13:01:43;100760.19;;;10.18;49.37
46690;BME280;32423;45.398;10.874;2023-01-30T13:04:28;100733.06;;;10.27;45.54
46690;BME280;32423;45.398;10.874;2023-01-30T13:07:32;100701.78;;;10.47;44.70
46690;BME280;32423;45.398;10.874;2023-01-30T13:13:57;100716.25;;;9.72;47.29
46690;BME280;32423;45.398;10.874;2023-01-30T13:17:09;100722.19;;;9.74;46.46
46690;BME280;32423;45.398;10.874;2023-01-30T13:23:28;100713.66;;;9.67;47.39
46690;BME280;32423;45.398;10.874;2023-01-30T13:26:23;100704.03;;;9.83;47.42
46690;BME280;32423;45.398;10.874;2023-01-30T13:29:34;100706.63;;;9.88;47.24
46690;BME280;32423;45.398;10.874;2023-01-30T13:32:51;100708.13;;;10.03;47.20
46690;BME280;32423;45.398;10.874;2023-01-30T13:35:47;100696.44;;;10.24;48.44
46690;BME280;32423;45.398;10.874;2023-01-30T13:38:44;100698.53;;;10.27;46.85
46690;BME280;32423;45.398;10.874;2023-01-30T13:41:48;100685.59;;;10.33;48.36
46690;BME280;32423;45.398;10.874;2023-01-30T13:44:45;100679.59;;;10.45;48.22
46690;BME280;32423;45.398;10.874;2023-01-30T13:54:09;100675.47;;;10.56;49.48
46690;BME280;32423;45.398;10.874;2023-01-30T13:57:25;100666.66;;;10.59;49.24
46690;BME280;32423;45.398;10.874;2023-01-30T14:00:33;100664.75;;;10.68;48.64
46690;BME280;32423;45.398;10.874;2023-01-30T14:03:28;100652.59;;;10.65;48.83
46690;BME280;32423;45.398;10.874;2023-01-30T14:06:30;100643.34;;;10.92;49.35
46690;BME280;32423;45.398;10.874;2023-01-30T14:09:30;100647.81;;;10.88;48.21
46690;BME280;32423;45.398;10.874;2023-01-30T14:12:29;100647.22;;;10.91;47.13
46690;BME280;32423;45.398;10.874;2023-01-30T14:15:28;100646.41;;;10.99;47.76
46690;BME280;32423;45.398;10.874;2023-01-30T14:18:28;100646.56;;;10.94;48.72
46690;BME280;32423;45.398;10.874;2023-01-30T14:21:26;100627.66;;;10.89;48.33
46690;BME280;32423;45.398;10.874;2023-01-30T14:24:20;100622.56;;;10.96;48.43
46690;BME280;32423;45.398;10.874;2023-01-30T14:27:27;100621.56;;;10.92;48.98
46690;BME280;32423;45.398;10.874;2023-01-30T14:36:28;100619.03;;;10.87;48.88
46690;BME280;32423;45.398;10.874;2023-01-30T14:39:52;100613.25;;;10.97;49.44
46690;BME280;32423;45.398;10.874;2023-01-30T14:49:30;100608.13;;;10.79;49.88
46690;BME280;32423;45.398;10.874;2023-01-30T14:52:46;100607.03;;;10.80;49.54
46690;BME280;32423;45.398;10.874;2023-01-30T14:55:41;100625.75;;;10.81;50.10
46690;BME280;32423;45.398;10.874;2023-01-30T14:58:35;100617.56;;;10.72;49.71
46690;BME280;32423;45.398;10.874;2023-01-30T15:01:25;100614.03;;;10.63;50.16
46690;BME280;32423;45.398;10.874;2023-01-30T15:04:21;100617.06;;;10.62;50.26
46690;BME280;32423;45.398;10.874;2023-01-30T15:07:35;100622.81;;;10.52;50.48
46690;BME280;32423;45.398;10.874;2023-01-30T15:17:04;100632.09;;;10.51;50.94
46690;BME280;32423;45.398;10.874;2023-01-30T15:20:11;100641.81;;;10.43;50.59
46690;BME280;32423;45.398;10.874;2023-01-30T15:33:08;100611.47;;;10.41;51.09
46690;BME280;32423;45.398;10.874;2023-01-30T15:36:19;100607.63;;;10.51;50.53
46690;BME280;32423;45.398;10.874;2023-01-30T15:39:25;100617.22;;;10.48;50.32
46690;BME280;32423;45.398;10.874;2023-01-30T15:42:18;100618.81;;;10.41;50.61
46690;BME280;32423;45.398;10.874;2023-01-30T15:45:14;100640.69;;;10.36;50.90
46690;BME280;32423;45.398;10.874;2023-01-30T15:51:28;100625.13;;;10.19;50.45
46690;BME280;32423;45.398;10.874;2023-01-30T15:54:25;100626.47;;;9.99;50.74
46690;BME280;32423;45.398;10.874;2023-01-30T15:57:22;100617.84;;;10.06;50.90
46690;BME280;32423;45.398;10.874;2023-01-30T16:00:58;100637.53;;;10.11;50.67
46690;BME280;32423;45.398;10.874;2023-01-30T16:03:53;100632.88;;;9.72;51.14
46690;BME280;32423;45.398;10.874;2023-01-30T16:06:46;100626.56;;;9.55;52.04
46690;BME280;32423;45.398;10.874;2023-01-30T16:09:41;100640.47;;;9.84;51.27
46690;BME280;32423;45.398;10.874;2023-01-30T16:12:33;100639.91;;;10.04;50.10
46690;BME280;32423;45.398;10.874;2023-01-30T16:15:44;100639.22;;;9.90;50.10
46690;BME280;32423;45.398;10.874;2023-01-30T16:19:05;100661.59;;;9.96;50.35
46690;BME280;32423;45.398;10.874;2023-01-30T16:21:59;100650.63;;;10.09;50.19
46690;BME280;32423;45.398;10.874;2023-01-30T16:24:55;100638.47;;;10.07;50.06
46690;BME280;32423;45.398;10.874;2023-01-30T16:27:46;100645.94;;;10.01;49.79
46690;BME280;32423;45.398;10.874;2023-01-30T16:30:39;100652.31;;;9.66;50.25
46690;BME280;32423;45.398;10.874;2023-01-30T16:33:31;100651.31;;;9.84;50.08
46690;BME280;32423;45.398;10.874;2023-01-30T16:39:36;100649.22;;;9.81;50.20
46690;BME280;32423;45.398;10.874;2023-01-30T16:42:28;100659.22;;;9.72;50.79
46690;BME280;32423;45.398;10.874;2023-01-30T16:48:36;100636.16;;;9.92;50.25
46690;BME280;32423;45.398;10.874;2023-01-30T16:51:28;100643.84;;;9.90;50.18
46690;BME280;32423;45.398;10.874;2023-01-30T16:54:29;100642.59;;;9.42;51.91
46690;BME280;32423;45.398;10.874;2023-01-30T16:57:28;100654.88;;;9.18;53.06
46690;BME280;32423;45.398;10.874;2023-01-30T17:00:35;100655.47;;;9.15;52.63
46690;BME280;32423;45.398;10.874;2023-01-30T17:03:31;100649.75;;;9.16;53.69
46690;BME280;32423;45.398;10.874;2023-01-30T17:06:28;100655.50;;;8.65;53.76
46690;BME280;32423;45.398;10.874;2023-01-30T17:09:37;100643.03;;;8.78;54.24
46690;BME280;32423;45.398;10.874;2023-01-30T17:15:27;100657.94;;;9.02;52.80
46690;BME280;32423;45.398;10.874;2023-01-30T17:18:21;100652.19;;;9.04;52.09
46690;BME280;32423;45.398;10.874;2023-01-30T17:21:16;100646.00;;;8.40;52.81